createdAt,value
2019-03-20T00:02:06.765Z,69.36
2019-03-20T00:04:37.375Z,69.41
2019-03-20T00:07:08.013Z,68.85
2019-03-20T00:09:38.636Z,68.65
2019-03-20T00:12:09.213Z,68.26
2019-03-20T00:14:39.771Z,68.60
2019-03-20T00:17:10.416Z,68.12
2019-03-20T00:19:41.080Z,68.78
2019-03-20T00:22:11.769Z,68.68
2019-03-20T00:24:42.270Z,68.61
2019-03-20T00:27:12.759Z,68.18
2019-03-20T00:29:45.338Z,67.82
2019-03-20T00:32:15.989Z,68.90
2019-03-20T00:34:46.570Z,67.99
2019-03-20T00:37:18.228Z,68.46
2019-03-20T00:39:52.809Z,68.34
2019-03-20T00:42:23.402Z,69.19
2019-03-20T00:44:54.116Z,69.35
2019-03-20T00:47:39.187Z,69.52
2019-03-20T00:50:15.301Z,69.60
2019-03-20T00:52:46.058Z,68.85
2019-03-20T00:55:16.915Z,69.13
2019-03-20T00:57:47.878Z,69.52
2019-03-20T01:00:18.846Z,69.54
2019-03-20T01:02:49.514Z,68.63
2019-03-20T01:05:23.846Z,69.40
2019-03-20T01:07:56.628Z,69.21
2019-03-20T01:10:27.266Z,69.59
2019-03-20T01:12:57.846Z,69.56
2019-03-20T01:15:28.457Z,69.42
2019-03-20T01:17:58.978Z,68.88
2019-03-20T01:20:29.540Z,69.32
2019-03-20T01:23:00.129Z,69.35
2019-03-20T01:25:30.694Z,69.56
2019-03-20T01:28:01.272Z,69.33
2019-03-20T01:30:39.211Z,69.59
2019-03-20T01:33:10.872Z,69.84
2019-03-20T01:35:41.677Z,69.76
2019-03-20T01:38:17.555Z,69.95
2019-03-20T01:40:48.183Z,69.94
2019-03-20T01:43:18.878Z,70.37
2019-03-20T01:45:59.205Z,70.27
2019-03-20T01:48:36.913Z,69.61
2019-03-20T01:51:17.238Z,69.93
2019-03-20T01:53:47.919Z,69.70
2019-03-20T01:56:18.696Z,69.35
2019-03-20T01:58:49.278Z,68.91
2019-03-20T02:01:23.435Z,69.35
2019-03-20T02:03:54.096Z,68.71
2019-03-20T02:06:24.793Z,68.91
2019-03-20T02:08:55.368Z,69.44
2019-03-20T02:11:26.078Z,69.65
2019-03-20T02:13:56.775Z,68.66
2019-03-20T02:16:28.412Z,69.60
2019-03-20T02:19:00.041Z,69.21
2019-03-20T02:21:36.540Z,69.46
2019-03-20T02:24:24.543Z,69.24
2019-03-20T02:26:55.145Z,69.84
2019-03-20T02:29:25.759Z,69.76
2019-03-20T02:31:57.320Z,69.49
2019-03-20T02:34:27.905Z,69.12
2019-03-20T02:36:58.571Z,69.75
2019-03-20T02:39:30.298Z,69.67
2019-03-20T02:42:00.898Z,69.59
2019-03-20T02:44:39.734Z,70.62
2019-03-20T02:47:10.505Z,70.79
2019-03-20T02:49:42.294Z,70.48
2019-03-20T02:52:12.989Z,70.33
2019-03-20T02:54:43.567Z,70.77
2019-03-20T02:57:17.432Z,71.68
2019-03-20T02:59:55.785Z,71.48
2019-03-20T03:02:31.955Z,71.67
2019-03-20T03:05:02.749Z,71.82
2019-03-20T03:07:45.244Z,71.42
2019-03-20T03:10:15.932Z,71.23
2019-03-20T03:12:54.786Z,71.21
2019-03-20T03:15:25.475Z,70.77
2019-03-20T03:17:57.093Z,70.79
2019-03-20T03:20:33.565Z,70.13
2019-03-20T03:23:04.314Z,70.42
2019-03-20T03:25:51.363Z,70.95
2019-03-20T03:28:22.991Z,70.92
2019-03-20T03:30:53.649Z,70.62
2019-03-20T03:33:26.551Z,70.52
2019-03-20T03:35:57.200Z,69.94
2019-03-20T03:38:27.813Z,70.58
2019-03-20T03:40:58.431Z,70.72
2019-03-20T03:43:29.179Z,70.74
2019-03-20T03:45:59.827Z,70.56
2019-03-20T03:48:30.448Z,70.32
2019-03-20T03:51:01.024Z,70.14
2019-03-20T03:53:31.618Z,70.79
2019-03-20T03:56:02.268Z,71.16
2019-03-20T03:58:35.976Z,72.47
2019-03-20T04:01:06.590Z,72.39
2019-03-20T04:03:37.260Z,72.37
2019-03-20T04:06:11.488Z,72.22
2019-03-20T04:08:42.183Z,72.04
2019-03-20T04:11:12.670Z,71.45
2019-03-20T04:13:43.321Z,71.19
2019-03-20T04:16:15.342Z,71.57
2019-03-20T04:18:55.894Z,71.26
2019-03-20T04:21:26.565Z,71.64
2019-03-20T04:23:57.157Z,71.37
2019-03-20T04:26:27.773Z,71.63
2019-03-20T04:28:58.436Z,72.26
2019-03-20T04:31:30.166Z,71.44
2019-03-20T04:34:06.913Z,71.51
2019-03-20T04:36:47.187Z,71.67
2019-03-20T04:39:22.370Z,71.80
2019-03-20T04:45:12.876Z,71.07
2019-03-20T04:47:43.974Z,70.31
2019-03-20T04:50:15.710Z,70.71
2019-03-20T04:52:46.321Z,70.64
2019-03-20T04:55:18.026Z,70.96
2019-03-20T04:57:48.620Z,71.55
2019-03-20T05:00:19.309Z,71.64
2019-03-20T05:03:07.018Z,71.73
2019-03-20T05:05:37.716Z,71.31
2019-03-20T05:08:08.368Z,70.91
2019-03-20T05:10:39.011Z,70.82
2019-03-20T05:13:09.654Z,71.00
2019-03-20T05:15:40.376Z,71.01
2019-03-20T05:18:22.354Z,71.25
2019-03-20T05:20:56.429Z,71.13
2019-03-20T05:23:34.168Z,70.52
2019-03-20T05:26:04.829Z,70.72
2019-03-20T05:28:35.426Z,70.15
2019-03-20T05:31:06.118Z,70.33
2019-03-20T05:33:36.675Z,69.92
2019-03-20T05:36:08.372Z,69.78
2019-03-20T05:38:38.989Z,70.52
2019-03-20T05:41:11.633Z,70.92
2019-03-20T05:44:25.910Z,70.85
2019-03-20T05:46:56.545Z,71.09
2019-03-20T05:49:28.225Z,70.53
2019-03-20T05:51:58.981Z,69.97
2019-03-20T05:54:35.243Z,70.45
2019-03-20T05:57:06.828Z,70.64
2019-03-20T05:59:41.736Z,71.03
2019-03-20T06:02:12.483Z,71.16
2019-03-20T06:04:43.291Z,70.85
2019-03-20T06:07:21.585Z,70.57
2019-03-20T06:09:55.980Z,70.20
2019-03-20T06:12:26.668Z,70.11
2019-03-20T06:15:00.450Z,70.46
2019-03-20T06:17:31.147Z,70.68
2019-03-20T06:20:01.891Z,70.57
2019-03-20T06:22:32.513Z,69.95
2019-03-20T06:25:04.708Z,69.29
2019-03-20T06:27:35.408Z,69.76
2019-03-20T06:30:07.019Z,69.69
2019-03-20T06:32:41.768Z,69.86
2019-03-20T06:35:17.102Z,69.71
2019-03-20T06:37:47.860Z,68.97
2019-03-20T06:40:23.884Z,68.62
2019-03-20T06:42:55.457Z,68.52
2019-03-20T06:45:26.290Z,68.93
2019-03-20T06:48:17.770Z,69.15
2019-03-20T06:50:48.414Z,69.06
2019-03-20T06:53:20.219Z,69.50
2019-03-20T06:55:56.273Z,69.39
2019-03-20T06:58:37.081Z,69.01
2019-03-20T07:01:20.479Z,69.41
2019-03-20T07:04:14.657Z,69.26
2019-03-20T07:07:09.928Z,68.95
2019-03-20T07:10:22.843Z,69.13
2019-03-20T07:13:14.589Z,68.85
2019-03-20T07:15:58.753Z,69.36
2019-03-20T07:18:33.275Z,69.24
2019-03-20T07:21:11.291Z,69.17
2019-03-20T07:26:56.862Z,68.41
2019-03-20T07:29:27.496Z,68.36
2019-03-20T07:32:11.597Z,67.25
2019-03-20T07:35:13.237Z,67.39
2019-03-20T07:37:56.219Z,66.41
2019-03-20T07:40:32.207Z,67.01
2019-03-20T07:43:08.583Z,66.86
2019-03-20T07:45:36.598Z,66.87
2019-03-20T07:48:07.378Z,66.42
2019-03-20T07:50:38.131Z,65.96
2019-03-20T07:53:10.851Z,65.40
2019-03-20T07:55:42.612Z,66.14
2019-03-20T08:01:22.191Z,64.50
2019-03-20T08:03:52.788Z,64.68
2019-03-20T08:06:28.516Z,64.25
2019-03-20T08:08:59.134Z,64.30
2019-03-20T08:11:34.940Z,65.11
2019-03-20T08:14:05.749Z,64.50
2019-03-20T08:16:37.488Z,64.35
2019-03-20T08:19:19.179Z,63.62
2019-03-20T08:22:23.618Z,63.83
2019-03-20T08:24:55.890Z,63.09
2019-03-20T08:27:27.590Z,64.06
2019-03-20T08:30:09.636Z,63.02
2019-03-20T08:32:40.421Z,62.60
2019-03-20T08:35:19.317Z,61.73
2019-03-20T08:37:50.324Z,60.74
2019-03-20T08:40:28.102Z,60.16
2019-03-20T08:42:58.762Z,58.89
2019-03-20T08:45:31.364Z,58.77
2019-03-20T08:48:02.128Z,58.38
2019-03-20T08:50:35.706Z,59.18
2019-03-20T08:53:06.641Z,60.09
2019-03-20T08:55:37.298Z,59.36
2019-03-20T08:58:07.967Z,59.26
2019-03-20T09:00:44.753Z,58.90
2019-03-20T09:03:15.372Z,59.56
2019-03-20T09:05:47.063Z,58.33
2019-03-20T09:08:28.521Z,58.70
2019-03-20T09:10:58.221Z,59.16
2019-03-20T09:13:28.973Z,59.59
2019-03-20T09:16:16.507Z,58.84
2019-03-20T09:18:52.405Z,59.04
2019-03-20T09:21:57.218Z,59.05
2019-03-20T09:24:30.586Z,58.86
2019-03-20T09:27:05.542Z,59.00
2019-03-20T09:29:38.421Z,59.11
2019-03-20T09:32:09.383Z,59.12
2019-03-20T09:34:40.129Z,58.82
2019-03-20T09:37:17.400Z,58.68
2019-03-20T09:39:48.097Z,58.25
2019-03-20T09:42:22.022Z,59.02
2019-03-20T09:44:52.567Z,58.44
2019-03-20T09:47:24.398Z,58.85
2019-03-20T09:50:00.054Z,58.51
2019-03-20T09:52:33.102Z,58.31
2019-03-20T09:55:04.932Z,58.09
2019-03-20T09:57:36.583Z,57.85
2019-03-20T10:00:14.294Z,58.20
2019-03-20T10:02:56.084Z,57.93
2019-03-20T10:05:26.675Z,58.94
2019-03-20T10:07:57.363Z,58.89
2019-03-20T10:10:28.034Z,58.61
2019-03-20T10:13:06.632Z,58.71
2019-03-20T10:15:55.640Z,58.37
2019-03-20T10:18:26.275Z,58.99
2019-03-20T10:20:56.929Z,58.39
2019-03-20T10:23:27.682Z,59.13
2019-03-20T10:25:58.251Z,58.81
2019-03-20T10:28:30.907Z,58.53
2019-03-20T10:31:04.948Z,58.59
2019-03-20T10:33:35.552Z,58.51
2019-03-20T10:36:07.213Z,58.23
2019-03-20T10:38:42.309Z,58.49
2019-03-20T10:41:15.994Z,58.28
2019-03-20T10:43:46.753Z,58.53
2019-03-20T10:46:17.453Z,57.93
2019-03-20T10:48:56.235Z,57.81
2019-03-20T10:51:26.390Z,57.55
2019-03-20T10:53:57.101Z,57.37
2019-03-20T10:56:27.883Z,57.21
2019-03-20T10:59:02.460Z,57.34
2019-03-20T11:01:42.175Z,56.87
2019-03-20T11:04:06.442Z,57.10
2019-03-20T11:06:37.137Z,57.54
2019-03-20T11:09:19.374Z,56.68
2019-03-20T11:11:50.073Z,56.98
2019-03-20T11:14:20.860Z,57.14
2019-03-20T11:16:52.484Z,57.18
2019-03-20T11:19:23.307Z,57.26
2019-03-20T11:21:56.224Z,57.35
2019-03-20T11:24:26.983Z,57.08
2019-03-20T11:26:57.585Z,56.82
2019-03-20T11:29:28.336Z,56.29
2019-03-20T11:31:59.002Z,56.28
2019-03-20T11:34:36.626Z,56.57
2019-03-20T11:37:07.396Z,56.71
2019-03-20T11:39:37.999Z,56.73
2019-03-20T11:42:10.615Z,56.89
2019-03-20T11:44:47.247Z,57.18
2019-03-20T11:47:19.038Z,57.39
2019-03-20T11:49:51.671Z,57.87
2019-03-20T11:52:22.357Z,58.31
2019-03-20T11:54:52.945Z,58.21
2019-03-20T11:57:31.581Z,58.32
2019-03-20T12:00:02.283Z,58.27
2019-03-20T12:02:37.460Z,57.84
2019-03-20T12:05:09.294Z,57.58
2019-03-20T12:07:39.969Z,57.42
2019-03-20T12:10:13.519Z,56.96
2019-03-20T12:12:44.220Z,56.12
2019-03-20T12:15:14.986Z,55.74
2019-03-20T12:17:45.760Z,55.53
2019-03-20T12:20:22.616Z,56.15
2019-03-20T12:22:53.337Z,56.02
2019-03-20T12:25:25.967Z,56.18
2019-03-20T12:27:56.690Z,55.78
2019-03-20T12:30:28.181Z,55.75
2019-03-20T12:32:58.857Z,56.13
2019-03-20T12:35:39.998Z,54.36
2019-03-20T12:38:15.550Z,53.97
2019-03-20T12:40:46.237Z,54.42
2019-03-20T12:43:24.206Z,53.79
2019-03-20T12:45:54.935Z,54.10
2019-03-20T12:48:25.628Z,54.29
2019-03-20T12:50:57.346Z,54.41
2019-03-20T12:53:30.319Z,54.21
2019-03-20T12:56:04.226Z,54.45
2019-03-20T12:58:49.094Z,53.77
2019-03-20T13:01:19.761Z,53.69
2019-03-20T13:03:57.428Z,54.08
2019-03-20T13:06:28.094Z,54.33
2019-03-20T13:08:58.706Z,54.08
2019-03-20T13:11:33.561Z,54.17
2019-03-20T13:14:05.902Z,53.64
2019-03-20T13:16:38.734Z,52.95
2019-03-20T13:19:10.359Z,53.63
2019-03-20T13:21:40.960Z,53.51
2019-03-20T13:24:11.643Z,53.04
2019-03-20T13:26:43.300Z,52.86
2019-03-20T13:29:15.074Z,52.88
2019-03-20T13:31:48.845Z,52.53
2019-03-20T13:34:19.509Z,52.91
2019-03-20T13:36:51.211Z,52.46
2019-03-20T13:39:21.841Z,52.41
2019-03-20T13:41:52.819Z,52.31
2019-03-20T13:44:23.375Z,52.35
2019-03-20T13:47:08.265Z,52.48
2019-03-20T13:49:40.876Z,53.35
2019-03-20T13:52:12.589Z,53.41
2019-03-20T13:54:44.384Z,54.24
2019-03-20T13:57:15.039Z,53.40
2019-03-20T13:59:45.829Z,53.31
2019-03-20T14:02:16.403Z,53.70
2019-03-20T14:04:47.010Z,53.56
2019-03-20T14:07:17.605Z,54.09
2019-03-20T14:09:48.323Z,53.39
2019-03-20T14:12:20.851Z,53.47
2019-03-20T14:14:51.538Z,54.26
2019-03-20T14:17:22.385Z,53.91
2019-03-20T14:19:53.124Z,54.02
2019-03-20T14:22:23.833Z,54.10
2019-03-20T14:25:06.760Z,54.10
2019-03-20T14:27:37.783Z,54.81
2019-03-20T14:30:18.237Z,54.94
2019-03-20T14:32:50.991Z,54.91
2019-03-20T14:35:21.979Z,54.73
2019-03-20T14:37:58.096Z,54.78
2019-03-20T14:40:36.257Z,55.17
2019-03-20T14:43:09.352Z,54.91
2019-03-20T14:45:40.094Z,55.20
2019-03-20T14:48:24.013Z,55.20
2019-03-20T14:50:54.970Z,55.24
2019-03-20T14:53:26.104Z,55.43
2019-03-20T14:55:58.955Z,55.42
2019-03-20T14:58:31.614Z,54.95
2019-03-20T15:01:02.371Z,55.14
2019-03-20T15:03:35.148Z,55.06
2019-03-20T15:06:05.902Z,54.80
2019-03-20T15:08:36.603Z,55.39
2019-03-20T15:11:07.585Z,55.08
2019-03-20T15:13:40.343Z,54.62
2019-03-20T15:16:12.392Z,54.54
2019-03-20T15:18:43.323Z,55.35
2019-03-20T15:21:14.047Z,55.98
2019-03-20T15:23:44.866Z,55.68
2019-03-20T15:26:15.828Z,56.04
2019-03-20T15:28:46.586Z,56.30
2019-03-20T15:31:17.360Z,56.70
2019-03-20T15:33:50.151Z,56.77
2019-03-20T15:36:20.816Z,56.92
2019-03-20T15:38:53.523Z,56.64
2019-03-20T15:41:26.284Z,56.77
2019-03-20T15:44:16.011Z,56.62
2019-03-20T15:46:48.796Z,56.45
2019-03-20T15:49:20.590Z,56.57
2019-03-20T15:51:51.229Z,56.73
2019-03-20T15:54:21.973Z,57.07
2019-03-20T15:56:52.782Z,56.85
2019-03-20T15:59:23.547Z,56.94
2019-03-20T16:01:54.266Z,57.53
2019-03-20T16:04:25.963Z,57.15
2019-03-20T16:06:57.686Z,58.46
2019-03-20T16:09:28.363Z,57.64
2019-03-20T16:11:58.982Z,57.74
2019-03-20T16:14:29.716Z,57.82
2019-03-20T16:17:00.363Z,57.67
2019-03-20T16:19:31.193Z,58.21
2019-03-20T16:22:01.939Z,58.73
2019-03-20T16:24:32.584Z,58.31
2019-03-20T16:27:08.619Z,58.15
2019-03-20T16:29:39.779Z,58.12
2019-03-20T16:32:11.501Z,58.31
2019-03-20T16:34:43.116Z,58.50
2019-03-20T16:37:14.015Z,59.71
2019-03-20T16:39:54.236Z,59.07
2019-03-20T16:42:26.037Z,58.31
2019-03-20T16:44:56.889Z,58.60
2019-03-20T16:47:27.728Z,58.93
2019-03-20T16:49:58.514Z,59.38
2019-03-20T16:52:31.247Z,58.35
2019-03-20T16:55:11.417Z,58.72
2019-03-20T16:57:42.172Z,59.11
2019-03-20T17:00:18.749Z,59.66
2019-03-20T17:02:49.740Z,59.14
2019-03-20T17:05:20.628Z,59.47
2019-03-20T17:07:51.503Z,59.35
2019-03-20T17:10:25.366Z,59.66
2019-03-20T17:12:56.159Z,59.60
2019-03-20T17:15:30.922Z,60.34
2019-03-20T17:18:04.654Z,60.34
2019-03-20T17:20:46.195Z,60.36
2019-03-20T17:23:17.568Z,60.92
2019-03-20T17:25:48.332Z,61.01
2019-03-20T17:28:19.007Z,60.93
2019-03-20T17:30:50.015Z,61.51
2019-03-20T17:33:24.161Z,61.18
2019-03-20T17:35:54.899Z,61.43
2019-03-20T17:38:30.252Z,61.40
2019-03-20T17:41:14.825Z,61.74
2019-03-20T17:43:45.596Z,62.15
2019-03-20T17:46:17.482Z,62.55
2019-03-20T17:48:49.260Z,62.54
2019-03-20T17:51:23.207Z,62.35
2019-03-20T17:53:53.913Z,63.53
2019-03-20T17:56:43.178Z,63.45
2019-03-20T17:59:13.929Z,63.70
2019-03-20T18:01:52.635Z,63.79
2019-03-20T18:04:23.454Z,63.88
2019-03-20T18:06:59.384Z,64.04
2019-03-20T18:09:32.086Z,64.13
2019-03-20T18:12:12.593Z,64.20
2019-03-20T18:14:43.853Z,64.64
2019-03-20T18:17:20.385Z,65.13
2019-03-20T18:19:53.182Z,65.14
2019-03-20T18:22:29.505Z,65.22
2019-03-20T18:25:01.179Z,64.57
2019-03-20T18:27:31.876Z,65.29
2019-03-20T18:30:02.533Z,65.85
2019-03-20T18:32:33.757Z,65.77
2019-03-20T18:35:10.873Z,65.69
2019-03-20T18:37:43.629Z,65.87
2019-03-20T18:40:17.719Z,65.88
2019-03-20T18:42:52.554Z,66.04
2019-03-20T18:45:23.308Z,66.41
2019-03-20T18:47:55.041Z,66.87
2019-03-20T18:50:25.808Z,66.33
2019-03-20T18:52:58.543Z,66.58
2019-03-20T18:55:29.388Z,67.04
2019-03-20T18:58:01.501Z,67.39
2019-03-20T19:00:32.263Z,67.64
2019-03-20T19:03:03.867Z,67.28
2019-03-20T19:05:41.957Z,67.68
2019-03-20T19:08:13.210Z,68.03
2019-03-20T19:10:48.917Z,67.95
2019-03-20T19:13:24.353Z,68.85
2019-03-20T19:15:57.525Z,68.48
2019-03-20T19:18:30.815Z,68.69
2019-03-20T19:21:02.597Z,68.78
2019-03-20T19:23:34.618Z,68.75
2019-03-20T19:26:06.753Z,69.13
2019-03-20T19:28:37.712Z,69.22
2019-03-20T19:31:08.689Z,68.87
2019-03-20T19:33:39.708Z,69.30
2019-03-20T19:36:11.597Z,68.89
2019-03-20T19:38:42.391Z,69.70
2019-03-20T19:41:13.870Z,69.87
2019-03-20T19:43:44.613Z,69.19
2019-03-20T19:46:16.632Z,69.29
2019-03-20T19:48:48.848Z,69.63
2019-03-20T19:51:27.773Z,69.35
2019-03-20T19:54:00.155Z,69.54
2019-03-20T19:56:37.387Z,69.73
2019-03-20T19:59:09.129Z,69.88
2019-03-20T20:01:42.147Z,69.79
2019-03-20T20:04:13.683Z,69.74
2019-03-20T20:06:49.855Z,70.25
2019-03-20T20:09:22.919Z,70.36
2019-03-20T20:11:58.106Z,70.12
2019-03-20T20:14:30.173Z,70.23
2019-03-20T20:17:03.025Z,70.57
2019-03-20T20:19:34.889Z,70.57
2019-03-20T20:22:05.749Z,70.63
2019-03-20T20:24:38.692Z,70.98
2019-03-20T20:27:13.715Z,71.02
2019-03-20T20:29:44.527Z,70.90
2019-03-20T20:32:16.538Z,70.72
2019-03-20T20:34:50.114Z,71.07
2019-03-20T20:37:25.741Z,71.32
2019-03-20T20:39:56.763Z,71.01
2019-03-20T20:42:27.714Z,70.98
2019-03-20T20:45:00.518Z,71.15
2019-03-20T20:47:32.560Z,71.27
2019-03-20T20:50:03.769Z,70.72
2019-03-20T20:52:40.445Z,70.94
2019-03-20T20:55:13.737Z,71.60
2019-03-20T20:57:44.943Z,71.19
2019-03-20T21:00:17.718Z,72.03
2019-03-20T21:02:52.608Z,72.22
2019-03-20T21:05:24.482Z,71.70
2019-03-20T21:07:55.446Z,72.18
2019-03-20T21:10:26.191Z,72.37
2019-03-20T21:12:59.174Z,72.54
2019-03-20T21:15:50.597Z,72.24
2019-03-20T21:19:04.583Z,72.57
2019-03-20T21:22:22.485Z,73.06
2019-03-20T21:24:53.714Z,72.88
2019-03-20T21:27:55.677Z,73.43
2019-03-20T21:31:23.820Z,73.19
2019-03-20T21:34:29.185Z,72.57
2019-03-20T21:37:51.583Z,72.47
2019-03-20T21:40:25.216Z,72.60
2019-03-20T21:43:23.834Z,73.08
2019-03-20T21:46:15.733Z,72.89
2019-03-20T21:48:46.813Z,72.58
2019-03-20T21:51:23.847Z,73.04
2019-03-20T21:54:35.556Z,73.19
2019-03-20T21:57:47.706Z,72.58
2019-03-20T22:00:54.568Z,74.29
2019-03-20T22:03:36.218Z,73.57
2019-03-20T22:06:37.176Z,73.89
2019-03-20T22:09:38.746Z,73.83
2019-03-20T22:12:36.345Z,73.69
2019-03-20T22:15:31.126Z,73.80
2019-03-20T22:18:40.364Z,74.11
2019-03-20T22:21:46.322Z,73.47
2019-03-20T22:24:42.630Z,74.33
2019-03-20T22:30:31.747Z,74.10
2019-03-20T22:33:38.336Z,74.62
2019-03-20T22:36:16.525Z,74.87
2019-03-20T22:38:59.014Z,74.77
2019-03-20T22:41:41.136Z,74.89
2019-03-20T22:44:12.371Z,75.18
2019-03-20T22:47:32.705Z,75.25
2019-03-20T22:50:33.541Z,74.79
2019-03-20T22:53:39.791Z,74.97
2019-03-20T22:57:01.724Z,75.20
2019-03-20T22:59:38.463Z,74.96
2019-03-20T23:02:43.479Z,75.23
2019-03-20T23:05:41.837Z,74.34
2019-03-20T23:08:16.584Z,74.71
2019-03-20T23:10:54.297Z,74.62
2019-03-20T23:13:25.555Z,74.67
2019-03-20T23:16:02.778Z,74.02
2019-03-20T23:18:35.107Z,74.94
2019-03-20T23:21:13.339Z,75.08
2019-03-20T23:23:49.065Z,75.33
2019-03-20T23:26:20.674Z,75.41
2019-03-20T23:28:55.364Z,75.48
2019-03-20T23:31:27.701Z,75.04
2019-03-20T23:33:58.850Z,75.03
2019-03-20T23:36:29.984Z,74.88
2019-03-20T23:42:13.839Z,75.61
2019-03-20T23:45:12.812Z,76.19
2019-03-20T23:48:17.962Z,75.04
2019-03-20T23:51:05.535Z,75.82
2019-03-20T23:53:39.486Z,75.75
2019-03-20T23:56:10.681Z,75.98
2019-03-20T23:58:41.846Z,75.23
